sensor_id;sensor_type;location;lat;lon;timestamp;P1;durP1;ratioP1;P2;durP2;ratioP2
61344;SDS011;47216;42.656;23.232;2022-09-28T00:01:30;6.30;;;2.57;;
61344;SDS011;47216;42.656;23.232;2022-09-28T00:03:57;4.43;;;2.80;;
61344;SDS011;47216;42.656;23.232;2022-09-28T00:06:24;3.93;;;2.23;;
61344;SDS011;47216;42.656;23.232;2022-09-28T00:08:54;3.37;;;2.30;;
61344;SDS011;47216;42.656;23.232;2022-09-28T00:11:21;3.20;;;2.77;;
61344;SDS011;47216;42.656;23.232;2022-09-28T00:13:52;5.13;;;1.90;;
61344;SDS011;47216;42.656;23.232;2022-09-28T00:16:22;6.37;;;2.20;;
61344;SDS011;47216;42.656;23.232;2022-09-28T00:18:51;2.10;;;1.50;;
61344;SDS011;47216;42.656;23.232;2022-09-28T00:21:19;53.00;;;33.37;;
61344;SDS011;47216;42.656;23.232;2022-09-28T00:23:50;6.07;;;2.90;;
61344;SDS011;47216;42.656;23.232;2022-09-28T00:26:37;15.67;;;6.63;;
61344;SDS011;47216;42.656;23.232;2022-09-28T00:29:06;4.70;;;2.20;;
61344;SDS011;47216;42.656;23.232;2022-09-28T00:31:40;2.30;;;1.53;;
61344;SDS011;47216;42.656;23.232;2022-09-28T00:34:07;6.80;;;2.20;;
61344;SDS011;47216;42.656;23.232;2022-09-28T00:36:34;5.73;;;1.93;;
61344;SDS011;47216;42.656;23.232;2022-09-28T00:39:02;3.33;;;1.90;;
61344;SDS011;47216;42.656;23.232;2022-09-28T00:41:30;7.30;;;3.90;;
61344;SDS011;47216;42.656;23.232;2022-09-28T00:46:57;12.03;;;10.80;;
61344;SDS011;47216;42.656;23.232;2022-09-28T00:49:29;5.57;;;3.37;;
61344;SDS011;47216;42.656;23.232;2022-09-28T00:51:59;4.07;;;2.67;;
61344;SDS011;47216;42.656;23.232;2022-09-28T00:54:29;7.70;;;4.30;;
61344;SDS011;47216;42.656;23.232;2022-09-28T00:56:55;3.50;;;2.93;;
61344;SDS011;47216;42.656;23.232;2022-09-28T00:59:23;1.87;;;1.73;;
61344;SDS011;47216;42.656;23.232;2022-09-28T01:01:51;3.73;;;3.43;;
61344;SDS011;47216;42.656;23.232;2022-09-28T01:04:18;5.60;;;2.93;;
61344;SDS011;47216;42.656;23.232;2022-09-28T01:06:45;6.93;;;2.80;;
61344;SDS011;47216;42.656;23.232;2022-09-28T01:09:12;7.67;;;1.80;;
61344;SDS011;47216;42.656;23.232;2022-09-28T01:11:40;6.53;;;4.40;;
61344;SDS011;47216;42.656;23.232;2022-09-28T01:14:08;5.40;;;2.20;;
61344;SDS011;47216;42.656;23.232;2022-09-28T01:16:39;3.70;;;1.60;;
61344;SDS011;47216;42.656;23.232;2022-09-28T01:19:16;1.50;;;1.40;;
61344;SDS011;47216;42.656;23.232;2022-09-28T01:22:03;3.87;;;1.77;;
61344;SDS011;47216;42.656;23.232;2022-09-28T01:24:41;8.63;;;1.73;;
61344;SDS011;47216;42.656;23.232;2022-09-28T01:27:13;2.67;;;1.90;;
61344;SDS011;47216;42.656;23.232;2022-09-28T01:29:45;2.40;;;1.70;;
61344;SDS011;47216;42.656;23.232;2022-09-28T01:32:22;5.70;;;2.47;;
61344;SDS011;47216;42.656;23.232;2022-09-28T01:34:58;3.27;;;2.03;;
61344;SDS011;47216;42.656;23.232;2022-09-28T01:37:32;5.37;;;3.53;;
61344;SDS011;47216;42.656;23.232;2022-09-28T01:40:05;3.47;;;2.57;;
61344;SDS011;47216;42.656;23.232;2022-09-28T01:42:36;3.80;;;1.80;;
61344;SDS011;47216;42.656;23.232;2022-09-28T01:45:09;2.97;;;2.00;;
61344;SDS011;47216;42.656;23.232;2022-09-28T01:47:40;3.77;;;2.83;;
61344;SDS011;47216;42.656;23.232;2022-09-28T01:50:10;7.70;;;4.63;;
61344;SDS011;47216;42.656;23.232;2022-09-28T01:52:43;2.20;;;2.00;;
61344;SDS011;47216;42.656;23.232;2022-09-28T01:55:16;6.17;;;2.13;;
61344;SDS011;47216;42.656;23.232;2022-09-28T01:57:51;5.47;;;2.47;;
61344;SDS011;47216;42.656;23.232;2022-09-28T02:00:22;3.43;;;2.30;;
61344;SDS011;47216;42.656;23.232;2022-09-28T02:02:51;3.53;;;1.70;;
61344;SDS011;47216;42.656;23.232;2022-09-28T02:05:22;4.53;;;3.67;;
61344;SDS011;47216;42.656;23.232;2022-09-28T02:07:55;3.50;;;2.00;;
61344;SDS011;47216;42.656;23.232;2022-09-28T02:10:28;3.43;;;2.20;;
61344;SDS011;47216;42.656;23.232;2022-09-28T02:13:00;2.20;;;2.00;;
61344;SDS011;47216;42.656;23.232;2022-09-28T02:15:32;4.43;;;2.30;;
61344;SDS011;47216;42.656;23.232;2022-09-28T02:18:05;4.00;;;1.90;;
61344;SDS011;47216;42.656;23.232;2022-09-28T02:20:33;5.90;;;1.80;;
61344;SDS011;47216;42.656;23.232;2022-09-28T02:23:02;7.77;;;1.87;;
61344;SDS011;47216;42.656;23.232;2022-09-28T02:25:33;6.40;;;1.90;;
61344;SDS011;47216;42.656;23.232;2022-09-28T02:28:05;7.10;;;2.47;;
61344;SDS011;47216;42.656;23.232;2022-09-28T02:30:35;4.27;;;1.90;;
61344;SDS011;47216;42.656;23.232;2022-09-28T02:33:09;7.13;;;4.77;;
61344;SDS011;47216;42.656;23.232;2022-09-28T02:35:40;4.50;;;1.97;;
61344;SDS011;47216;42.656;23.232;2022-09-28T02:38:09;3.10;;;1.70;;
61344;SDS011;47216;42.656;23.232;2022-09-28T02:40:36;3.77;;;2.07;;
61344;SDS011;47216;42.656;23.232;2022-09-28T02:43:10;29.67;;;12.20;;
61344;SDS011;47216;42.656;23.232;2022-09-28T02:45:45;10.67;;;2.83;;
61344;SDS011;47216;42.656;23.232;2022-09-28T02:48:28;4.43;;;2.20;;
61344;SDS011;47216;42.656;23.232;2022-09-28T02:51:14;9.23;;;2.13;;
61344;SDS011;47216;42.656;23.232;2022-09-28T02:56:40;2.60;;;1.80;;
61344;SDS011;47216;42.656;23.232;2022-09-28T02:59:30;7.10;;;1.80;;
61344;SDS011;47216;42.656;23.232;2022-09-28T03:02:07;5.50;;;1.87;;
61344;SDS011;47216;42.656;23.232;2022-09-28T03:04:43;1.70;;;1.60;;
61344;SDS011;47216;42.656;23.232;2022-09-28T03:07:18;6.40;;;1.43;;
61344;SDS011;47216;42.656;23.232;2022-09-28T03:09:53;4.30;;;1.83;;
61344;SDS011;47216;42.656;23.232;2022-09-28T03:12:26;2.17;;;1.67;;
61344;SDS011;47216;42.656;23.232;2022-09-28T03:15:11;4.70;;;1.97;;
61344;SDS011;47216;42.656;23.232;2022-09-28T03:17:44;4.70;;;2.10;;
61344;SDS011;47216;42.656;23.232;2022-09-28T03:20:12;6.13;;;2.30;;
61344;SDS011;47216;42.656;23.232;2022-09-28T03:22:39;5.40;;;2.13;;
61344;SDS011;47216;42.656;23.232;2022-09-28T03:25:06;10.80;;;2.13;;
61344;SDS011;47216;42.656;23.232;2022-09-28T03:27:34;2.33;;;1.90;;
61344;SDS011;47216;42.656;23.232;2022-09-28T03:30:01;5.63;;;2.50;;
61344;SDS011;47216;42.656;23.232;2022-09-28T03:32:30;3.77;;;2.00;;
61344;SDS011;47216;42.656;23.232;2022-09-28T03:34:57;4.30;;;1.70;;
61344;SDS011;47216;42.656;23.232;2022-09-28T03:37:25;5.67;;;1.80;;
61344;SDS011;47216;42.656;23.232;2022-09-28T03:39:51;4.13;;;1.90;;
61344;SDS011;47216;42.656;23.232;2022-09-28T03:42:18;3.90;;;1.97;;
61344;SDS011;47216;42.656;23.232;2022-09-28T03:44:45;2.90;;;2.50;;
61344;SDS011;47216;42.656;23.232;2022-09-28T03:47:12;3.03;;;2.23;;
61344;SDS011;47216;42.656;23.232;2022-09-28T03:49:41;3.07;;;1.97;;
61344;SDS011;47216;42.656;23.232;2022-09-28T03:52:10;5.20;;;2.30;;
61344;SDS011;47216;42.656;23.232;2022-09-28T03:54:37;4.67;;;2.47;;
61344;SDS011;47216;42.656;23.232;2022-09-28T03:57:04;3.90;;;2.53;;
61344;SDS011;47216;42.656;23.232;2022-09-28T03:59:31;5.60;;;2.30;;
61344;SDS011;47216;42.656;23.232;2022-09-28T04:02:01;7.37;;;2.40;;
61344;SDS011;47216;42.656;23.232;2022-09-28T04:04:28;2.20;;;2.00;;
61344;SDS011;47216;42.656;23.232;2022-09-28T04:06:57;10.40;;;2.87;;
61344;SDS011;47216;42.656;23.232;2022-09-28T04:09:23;5.13;;;2.27;;
61344;SDS011;47216;42.656;23.232;2022-09-28T04:11:50;3.27;;;2.30;;
61344;SDS011;47216;42.656;23.232;2022-09-28T04:14:17;6.73;;;2.80;;
61344;SDS011;47216;42.656;23.232;2022-09-28T04:16:44;5.13;;;2.43;;
61344;SDS011;47216;42.656;23.232;2022-09-28T04:19:12;4.57;;;2.60;;
61344;SDS011;47216;42.656;23.232;2022-09-28T04:21:39;2.63;;;2.30;;
61344;SDS011;47216;42.656;23.232;2022-09-28T04:24:07;5.20;;;2.27;;
61344;SDS011;47216;42.656;23.232;2022-09-28T04:26:34;7.80;;;3.07;;
61344;SDS011;47216;42.656;23.232;2022-09-28T04:29:01;8.00;;;2.50;;
61344;SDS011;47216;42.656;23.232;2022-09-28T04:31:43;7.40;;;2.90;;
61344;SDS011;47216;42.656;23.232;2022-09-28T04:34:12;6.47;;;3.13;;
61344;SDS011;47216;42.656;23.232;2022-09-28T04:36:41;6.07;;;3.10;;
61344;SDS011;47216;42.656;23.232;2022-09-28T04:39:09;4.93;;;2.90;;
61344;SDS011;47216;42.656;23.232;2022-09-28T04:41:36;5.03;;;2.70;;
61344;SDS011;47216;42.656;23.232;2022-09-28T04:44:03;5.83;;;3.00;;
61344;SDS011;47216;42.656;23.232;2022-09-28T04:46:30;4.23;;;2.63;;
61344;SDS011;47216;42.656;23.232;2022-09-28T04:48:57;5.23;;;2.30;;
61344;SDS011;47216;42.656;23.232;2022-09-28T04:51:24;3.80;;;3.20;;
61344;SDS011;47216;42.656;23.232;2022-09-28T04:53:50;3.60;;;2.50;;
61344;SDS011;47216;42.656;23.232;2022-09-28T04:56:19;6.03;;;2.63;;
61344;SDS011;47216;42.656;23.232;2022-09-28T04:58:45;33.57;;;16.97;;
61344;SDS011;47216;42.656;23.232;2022-09-28T05:01:13;7.93;;;3.23;;
61344;SDS011;47216;42.656;23.232;2022-09-28T05:03:41;3.83;;;3.20;;
61344;SDS011;47216;42.656;23.232;2022-09-28T05:06:08;8.53;;;3.50;;
61344;SDS011;47216;42.656;23.232;2022-09-28T05:08:38;6.47;;;3.47;;
61344;SDS011;47216;42.656;23.232;2022-09-28T05:11:05;4.73;;;3.30;;
61344;SDS011;47216;42.656;23.232;2022-09-28T05:13:38;26.77;;;22.33;;
61344;SDS011;47216;42.656;23.232;2022-09-28T05:16:07;13.77;;;7.83;;
61344;SDS011;47216;42.656;23.232;2022-09-28T05:18:34;5.63;;;4.57;;
61344;SDS011;47216;42.656;23.232;2022-09-28T05:21:01;5.40;;;4.10;;
61344;SDS011;47216;42.656;23.232;2022-09-28T05:23:28;6.60;;;4.00;;
61344;SDS011;47216;42.656;23.232;2022-09-28T05:25:55;7.07;;;3.20;;
61344;SDS011;47216;42.656;23.232;2022-09-28T05:28:23;5.90;;;3.50;;
61344;SDS011;47216;42.656;23.232;2022-09-28T05:30:54;5.33;;;3.10;;
61344;SDS011;47216;42.656;23.232;2022-09-28T05:33:23;4.70;;;3.23;;
61344;SDS011;47216;42.656;23.232;2022-09-28T05:35:50;7.40;;;3.97;;
61344;SDS011;47216;42.656;23.232;2022-09-28T05:38:17;7.50;;;4.17;;
61344;SDS011;47216;42.656;23.232;2022-09-28T05:40:44;9.57;;;7.03;;
61344;SDS011;47216;42.656;23.232;2022-09-28T05:43:10;12.23;;;6.83;;
61344;SDS011;47216;42.656;23.232;2022-09-28T05:45:37;14.03;;;6.33;;
61344;SDS011;47216;42.656;23.232;2022-09-28T05:48:05;10.47;;;6.13;;
61344;SDS011;47216;42.656;23.232;2022-09-28T05:50:32;7.57;;;5.17;;
61344;SDS011;47216;42.656;23.232;2022-09-28T05:53:00;7.93;;;4.60;;
61344;SDS011;47216;42.656;23.232;2022-09-28T05:55:28;9.33;;;4.43;;
61344;SDS011;47216;42.656;23.232;2022-09-28T05:57:56;8.80;;;4.00;;
61344;SDS011;47216;42.656;23.232;2022-09-28T06:00:23;12.40;;;4.17;;
61344;SDS011;47216;42.656;23.232;2022-09-28T06:02:54;6.30;;;3.70;;
61344;SDS011;47216;42.656;23.232;2022-09-28T06:05:23;8.57;;;3.50;;
61344;SDS011;47216;42.656;23.232;2022-09-28T06:07:50;7.13;;;3.03;;
61344;SDS011;47216;42.656;23.232;2022-09-28T06:10:17;5.77;;;2.83;;
61344;SDS011;47216;42.656;23.232;2022-09-28T06:12:44;7.37;;;2.70;;
61344;SDS011;47216;42.656;23.232;2022-09-28T06:15:13;6.43;;;3.00;;
61344;SDS011;47216;42.656;23.232;2022-09-28T06:17:41;8.70;;;3.47;;
61344;SDS011;47216;42.656;23.232;2022-09-28T06:20:08;6.70;;;4.23;;
61344;SDS011;47216;42.656;23.232;2022-09-28T06:22:37;6.17;;;4.03;;
61344;SDS011;47216;42.656;23.232;2022-09-28T06:25:04;5.23;;;4.13;;
61344;SDS011;47216;42.656;23.232;2022-09-28T06:27:32;9.07;;;5.30;;
61344;SDS011;47216;42.656;23.232;2022-09-28T06:30:00;8.17;;;5.43;;
61344;SDS011;47216;42.656;23.232;2022-09-28T06:32:27;10.23;;;7.03;;
61344;SDS011;47216;42.656;23.232;2022-09-28T06:34:54;10.37;;;7.47;;
61344;SDS011;47216;42.656;23.232;2022-09-28T06:37:21;12.23;;;8.40;;
61344;SDS011;47216;42.656;23.232;2022-09-28T06:39:51;15.43;;;9.70;;
61344;SDS011;47216;42.656;23.232;2022-09-28T06:42:18;14.87;;;10.07;;
61344;SDS011;47216;42.656;23.232;2022-09-28T06:44:46;21.53;;;11.90;;
61344;SDS011;47216;42.656;23.232;2022-09-28T06:47:12;20.40;;;12.63;;
61344;SDS011;47216;42.656;23.232;2022-09-28T06:49:41;16.17;;;10.97;;
61344;SDS011;47216;42.656;23.232;2022-09-28T06:52:08;17.63;;;12.70;;
61344;SDS011;47216;42.656;23.232;2022-09-28T06:54:36;22.93;;;14.10;;
61344;SDS011;47216;42.656;23.232;2022-09-28T06:57:04;18.27;;;13.37;;
61344;SDS011;47216;42.656;23.232;2022-09-28T06:59:31;23.33;;;15.37;;
61344;SDS011;47216;42.656;23.232;2022-09-28T07:01:58;24.27;;;15.07;;
61344;SDS011;47216;42.656;23.232;2022-09-28T07:04:25;21.53;;;14.37;;
61344;SDS011;47216;42.656;23.232;2022-09-28T07:06:52;22.73;;;13.70;;
61344;SDS011;47216;42.656;23.232;2022-09-28T07:09:19;26.17;;;13.77;;
61344;SDS011;47216;42.656;23.232;2022-09-28T07:11:46;20.10;;;12.57;;
61344;SDS011;47216;42.656;23.232;2022-09-28T07:14:14;22.30;;;13.00;;
61344;SDS011;47216;42.656;23.232;2022-09-28T07:16:41;23.70;;;12.97;;
61344;SDS011;47216;42.656;23.232;2022-09-28T07:19:07;25.57;;;14.70;;
61344;SDS011;47216;42.656;23.232;2022-09-28T07:21:34;25.60;;;14.27;;
61344;SDS011;47216;42.656;23.232;2022-09-28T07:24:01;25.07;;;13.90;;
61344;SDS011;47216;42.656;23.232;2022-09-28T07:26:28;22.97;;;14.20;;
61344;SDS011;47216;42.656;23.232;2022-09-28T07:28:57;24.63;;;15.00;;
61344;SDS011;47216;42.656;23.232;2022-09-28T07:31:25;24.00;;;14.43;;
61344;SDS011;47216;42.656;23.232;2022-09-28T07:33:53;25.63;;;15.63;;
61344;SDS011;47216;42.656;23.232;2022-09-28T07:36:20;26.57;;;15.87;;
61344;SDS011;47216;42.656;23.232;2022-09-28T07:38:47;23.50;;;15.17;;
61344;SDS011;47216;42.656;23.232;2022-09-28T07:41:15;23.13;;;15.37;;
61344;SDS011;47216;42.656;23.232;2022-09-28T07:43:46;21.77;;;14.63;;
61344;SDS011;47216;42.656;23.232;2022-09-28T07:46:14;22.30;;;14.33;;
61344;SDS011;47216;42.656;23.232;2022-09-28T07:48:43;21.27;;;12.67;;
61344;SDS011;47216;42.656;23.232;2022-09-28T07:51:10;18.53;;;12.40;;
61344;SDS011;47216;42.656;23.232;2022-09-28T07:53:36;21.83;;;12.40;;
61344;SDS011;47216;42.656;23.232;2022-09-28T07:56:04;21.37;;;11.57;;
61344;SDS011;47216;42.656;23.232;2022-09-28T07:58:33;20.97;;;11.80;;
61344;SDS011;47216;42.656;23.232;2022-09-28T08:01:04;23.17;;;11.03;;
61344;SDS011;47216;42.656;23.232;2022-09-28T08:03:33;23.43;;;11.53;;
61344;SDS011;47216;42.656;23.232;2022-09-28T08:06:02;12.50;;;8.97;;
61344;SDS011;47216;42.656;23.232;2022-09-28T08:08:32;16.80;;;9.00;;
61344;SDS011;47216;42.656;23.232;2022-09-28T08:10:59;14.97;;;10.13;;
61344;SDS011;47216;42.656;23.232;2022-09-28T08:13:26;17.80;;;9.90;;
61344;SDS011;47216;42.656;23.232;2022-09-28T08:15:58;13.13;;;8.47;;
61344;SDS011;47216;42.656;23.232;2022-09-28T08:18:26;14.53;;;9.23;;
61344;SDS011;47216;42.656;23.232;2022-09-28T08:20:52;15.53;;;10.20;;
61344;SDS011;47216;42.656;23.232;2022-09-28T08:23:38;14.63;;;8.50;;
61344;SDS011;47216;42.656;23.232;2022-09-28T08:26:05;10.53;;;6.57;;
61344;SDS011;47216;42.656;23.232;2022-09-28T08:28:32;12.17;;;7.63;;
61344;SDS011;47216;42.656;23.232;2022-09-28T08:31:00;12.40;;;7.17;;
61344;SDS011;47216;42.656;23.232;2022-09-28T08:33:27;11.87;;;7.50;;
61344;SDS011;47216;42.656;23.232;2022-09-28T08:35:54;15.13;;;6.90;;
61344;SDS011;47216;42.656;23.232;2022-09-28T08:38:23;20.73;;;7.70;;
61344;SDS011;47216;42.656;23.232;2022-09-28T08:40:55;11.20;;;7.17;;
61344;SDS011;47216;42.656;23.232;2022-09-28T08:46:28;10.03;;;5.10;;
61344;SDS011;47216;42.656;23.232;2022-09-28T08:48:59;12.40;;;4.30;;
61344;SDS011;47216;42.656;23.232;2022-09-28T08:51:32;9.20;;;4.20;;
61344;SDS011;47216;42.656;23.232;2022-09-28T08:54:04;6.87;;;3.67;;
61344;SDS011;47216;42.656;23.232;2022-09-28T08:56:41;6.57;;;3.00;;
61344;SDS011;47216;42.656;23.232;2022-09-28T08:59:11;9.43;;;3.73;;
61344;SDS011;47216;42.656;23.232;2022-09-28T09:01:41;7.03;;;3.40;;
61344;SDS011;47216;42.656;23.232;2022-09-28T09:04:13;6.30;;;3.27;;
61344;SDS011;47216;42.656;23.232;2022-09-28T09:06:48;10.47;;;3.80;;
61344;SDS011;47216;42.656;23.232;2022-09-28T09:09:36;12.67;;;4.00;;
61344;SDS011;47216;42.656;23.232;2022-09-28T09:12:16;6.57;;;3.80;;
61344;SDS011;47216;42.656;23.232;2022-09-28T09:15:00;6.40;;;3.70;;
61344;SDS011;47216;42.656;23.232;2022-09-28T09:17:46;7.97;;;4.27;;
61344;SDS011;47216;42.656;23.232;2022-09-28T09:20:24;7.40;;;4.10;;
61344;SDS011;47216;42.656;23.232;2022-09-28T09:22:59;9.80;;;4.53;;
61344;SDS011;47216;42.656;23.232;2022-09-28T09:25:32;11.07;;;5.23;;
61344;SDS011;47216;42.656;23.232;2022-09-28T09:28:20;9.13;;;4.70;;
61344;SDS011;47216;42.656;23.232;2022-09-28T09:31:07;12.50;;;5.17;;
61344;SDS011;47216;42.656;23.232;2022-09-28T09:36:35;6.47;;;3.33;;
61344;SDS011;47216;42.656;23.232;2022-09-28T09:39:16;8.80;;;2.73;;
61344;SDS011;47216;42.656;23.232;2022-09-28T09:41:58;11.80;;;4.03;;
61344;SDS011;47216;42.656;23.232;2022-09-28T09:44:39;6.00;;;3.33;;
61344;SDS011;47216;42.656;23.232;2022-09-28T09:47:19;3.23;;;1.90;;
61344;SDS011;47216;42.656;23.232;2022-09-28T09:49:50;4.27;;;1.60;;
61344;SDS011;47216;42.656;23.232;2022-09-28T09:52:26;6.70;;;1.50;;
61344;SDS011;47216;42.656;23.232;2022-09-28T09:55:01;3.90;;;1.35;;
61344;SDS011;47216;42.656;23.232;2022-09-28T09:57:33;4.43;;;1.70;;
61344;SDS011;47216;42.656;23.232;2022-09-28T10:00:11;5.45;;;1.67;;
61344;SDS011;47216;42.656;23.232;2022-09-28T10:02:40;7.13;;;1.40;;
61344;SDS011;47216;42.656;23.232;2022-09-28T10:05:15;4.47;;;1.45;;
61344;SDS011;47216;42.656;23.232;2022-09-28T10:07:48;4.33;;;1.23;;
61344;SDS011;47216;42.656;23.232;2022-09-28T10:10:21;4.25;;;1.20;;
61344;SDS011;47216;42.656;23.232;2022-09-28T10:12:51;3.20;;;1.53;;
61344;SDS011;47216;42.656;23.232;2022-09-28T10:15:21;1.73;;;1.45;;
61344;SDS011;47216;42.656;23.232;2022-09-28T10:17:49;7.10;;;1.20;;
61344;SDS011;47216;42.656;23.232;2022-09-28T10:20:17;2.63;;;1.25;;
61344;SDS011;47216;42.656;23.232;2022-09-28T10:22:44;3.00;;;1.20;;
61344;SDS011;47216;42.656;23.232;2022-09-28T10:25:11;4.05;;;1.08;;
61344;SDS011;47216;42.656;23.232;2022-09-28T10:27:40;2.33;;;0.90;;
61344;SDS011;47216;42.656;23.232;2022-09-28T10:30:12;3.08;;;1.15;;
61344;SDS011;47216;42.656;23.232;2022-09-28T10:32:43;2.83;;;1.05;;
61344;SDS011;47216;42.656;23.232;2022-09-28T10:35:13;8.57;;;2.22;;
61344;SDS011;47216;42.656;23.232;2022-09-28T10:37:48;9.48;;;2.85;;
61344;SDS011;47216;42.656;23.232;2022-09-28T10:40:24;12.80;;;5.10;;
61344;SDS011;47216;42.656;23.232;2022-09-28T10:42:58;2.58;;;1.45;;
61344;SDS011;47216;42.656;23.232;2022-09-28T10:45:26;3.78;;;1.20;;
61344;SDS011;47216;42.656;23.232;2022-09-28T10:48:01;3.15;;;1.13;;
61344;SDS011;47216;42.656;23.232;2022-09-28T10:50:31;2.10;;;1.00;;
61344;SDS011;47216;42.656;23.232;2022-09-28T10:53:09;3.45;;;1.40;;
61344;SDS011;47216;42.656;23.232;2022-09-28T10:55:37;7.90;;;2.17;;
61344;SDS011;47216;42.656;23.232;2022-09-28T10:58:18;1.95;;;1.50;;
61344;SDS011;47216;42.656;23.232;2022-09-28T11:00:50;2.13;;;1.23;;
61344;SDS011;47216;42.656;23.232;2022-09-28T11:03:19;6.15;;;1.60;;
61344;SDS011;47216;42.656;23.232;2022-09-28T11:05:53;3.22;;;1.27;;
61344;SDS011;47216;42.656;23.232;2022-09-28T11:08:23;2.28;;;1.30;;
61344;SDS011;47216;42.656;23.232;2022-09-28T11:11:06;3.30;;;1.55;;
61344;SDS011;47216;42.656;23.232;2022-09-28T11:13:44;2.03;;;1.20;;
61344;SDS011;47216;42.656;23.232;2022-09-28T11:16:20;3.67;;;1.70;;
61344;SDS011;47216;42.656;23.232;2022-09-28T11:18:51;5.85;;;1.20;;
61344;SDS011;47216;42.656;23.232;2022-09-28T11:21:20;4.68;;;1.23;;
61344;SDS011;47216;42.656;23.232;2022-09-28T11:23:56;4.10;;;1.38;;
61344;SDS011;47216;42.656;23.232;2022-09-28T11:26:25;3.35;;;1.60;;
61344;SDS011;47216;42.656;23.232;2022-09-28T11:28:52;1.50;;;1.20;;
61344;SDS011;47216;42.656;23.232;2022-09-28T11:31:23;3.67;;;1.20;;
61344;SDS011;47216;42.656;23.232;2022-09-28T11:34:01;3.00;;;1.33;;
61344;SDS011;47216;42.656;23.232;2022-09-28T11:36:33;3.40;;;1.30;;
61344;SDS011;47216;42.656;23.232;2022-09-28T11:39:15;3.35;;;1.05;;
61344;SDS011;47216;42.656;23.232;2022-09-28T11:41:54;1.92;;;1.00;;
61344;SDS011;47216;42.656;23.232;2022-09-28T11:44:37;2.45;;;1.00;;
61344;SDS011;47216;42.656;23.232;2022-09-28T11:47:28;9.43;;;1.25;;
61344;SDS011;47216;42.656;23.232;2022-09-28T11:50:05;2.90;;;1.20;;
61344;SDS011;47216;42.656;23.232;2022-09-28T11:52:41;2.58;;;1.23;;
61344;SDS011;47216;42.656;23.232;2022-09-28T11:55:16;3.28;;;1.00;;
61344;SDS011;47216;42.656;23.232;2022-09-28T11:57:51;2.85;;;1.23;;
61344;SDS011;47216;42.656;23.232;2022-09-28T12:00:22;2.17;;;1.00;;
61344;SDS011;47216;42.656;23.232;2022-09-28T12:02:50;2.50;;;1.02;;
61344;SDS011;47216;42.656;23.232;2022-09-28T12:05:24;2.67;;;1.40;;
61344;SDS011;47216;42.656;23.232;2022-09-28T12:07:54;2.33;;;1.20;;
61344;SDS011;47216;42.656;23.232;2022-09-28T12:10:28;8.95;;;1.40;;
61344;SDS011;47216;42.656;23.232;2022-09-28T12:13:02;2.50;;;1.40;;
61344;SDS011;47216;42.656;23.232;2022-09-28T12:15:37;1.90;;;1.00;;
61344;SDS011;47216;42.656;23.232;2022-09-28T12:18:10;1.42;;;0.93;;
61344;SDS011;47216;42.656;23.232;2022-09-28T12:20:45;3.15;;;1.20;;
61344;SDS011;47216;42.656;23.232;2022-09-28T12:23:17;5.63;;;1.15;;
61344;SDS011;47216;42.656;23.232;2022-09-28T12:25:50;3.03;;;1.20;;
61344;SDS011;47216;42.656;23.232;2022-09-28T12:28:25;3.00;;;1.23;;
61344;SDS011;47216;42.656;23.232;2022-09-28T12:31:00;3.47;;;1.02;;
61344;SDS011;47216;42.656;23.232;2022-09-28T12:33:38;3.80;;;1.20;;
61344;SDS011;47216;42.656;23.232;2022-09-28T12:36:23;1.27;;;1.17;;
61344;SDS011;47216;42.656;23.232;2022-09-28T12:42:07;1.85;;;1.00;;
61344;SDS011;47216;42.656;23.232;2022-09-28T12:44:53;4.25;;;1.02;;
61344;SDS011;47216;42.656;23.232;2022-09-28T12:47:35;1.45;;;0.75;;
61344;SDS011;47216;42.656;23.232;2022-09-28T12:50:18;2.63;;;1.00;;
61344;SDS011;47216;42.656;23.232;2022-09-28T12:52:58;2.80;;;0.90;;
61344;SDS011;47216;42.656;23.232;2022-09-28T12:55:43;1.83;;;0.90;;
61344;SDS011;47216;42.656;23.232;2022-09-28T12:58:37;2.50;;;1.13;;
61344;SDS011;47216;42.656;23.232;2022-09-28T13:01:27;2.58;;;1.00;;
61344;SDS011;47216;42.656;23.232;2022-09-28T13:07:09;0.70;;;0.70;;
61344;SDS011;47216;42.656;23.232;2022-09-28T13:09:55;4.10;;;1.27;;
61344;SDS011;47216;42.656;23.232;2022-09-28T13:12:33;1.35;;;1.25;;
61344;SDS011;47216;42.656;23.232;2022-09-28T13:18:06;2.80;;;0.95;;
61344;SDS011;47216;42.656;23.232;2022-09-28T13:20:38;1.38;;;0.93;;
61344;SDS011;47216;42.656;23.232;2022-09-28T13:23:18;2.75;;;0.90;;
61344;SDS011;47216;42.656;23.232;2022-09-28T13:25:51;5.57;;;1.35;;
61344;SDS011;47216;42.656;23.232;2022-09-28T13:28:21;3.25;;;1.10;;
61344;SDS011;47216;42.656;23.232;2022-09-28T13:30:50;4.68;;;1.10;;
61344;SDS011;47216;42.656;23.232;2022-09-28T13:33:21;1.17;;;0.80;;
61344;SDS011;47216;42.656;23.232;2022-09-28T13:35:54;2.28;;;1.15;;
61344;SDS011;47216;42.656;23.232;2022-09-28T13:41:18;3.15;;;1.10;;
61344;SDS011;47216;42.656;23.232;2022-09-28T13:46:54;1.17;;;0.90;;
61344;SDS011;47216;42.656;23.232;2022-09-28T13:49:35;1.77;;;0.88;;
61344;SDS011;47216;42.656;23.232;2022-09-28T13:52:11;1.30;;;0.93;;
61344;SDS011;47216;42.656;23.232;2022-09-28T13:55:00;1.35;;;1.25;;
61344;SDS011;47216;42.656;23.232;2022-09-28T13:57:40;3.45;;;2.67;;
61344;SDS011;47216;42.656;23.232;2022-09-28T14:00:15;2.38;;;0.98;;
61344;SDS011;47216;42.656;23.232;2022-09-28T14:02:46;0.85;;;0.80;;
61344;SDS011;47216;42.656;23.232;2022-09-28T14:08:10;2.80;;;0.77;;
61344;SDS011;47216;42.656;23.232;2022-09-28T14:14:24;8.32;;;1.45;;
61344;SDS011;47216;42.656;23.232;2022-09-28T14:20:22;6.13;;;1.05;;
61344;SDS011;47216;42.656;23.232;2022-09-28T14:29:05;7.13;;;1.35;;
61344;SDS011;47216;42.656;23.232;2022-09-28T14:31:44;1.45;;;0.93;;
61344;SDS011;47216;42.656;23.232;2022-09-28T14:37:17;2.33;;;1.30;;
61344;SDS011;47216;42.656;23.232;2022-09-28T14:40:07;2.50;;;1.20;;
61344;SDS011;47216;42.656;23.232;2022-09-28T14:45:48;3.45;;;1.02;;
61344;SDS011;47216;42.656;23.232;2022-09-28T14:48:19;5.43;;;1.60;;
61344;SDS011;47216;42.656;23.232;2022-09-28T14:50:47;2.38;;;1.13;;
61344;SDS011;47216;42.656;23.232;2022-09-28T14:53:17;1.45;;;0.90;;
61344;SDS011;47216;42.656;23.232;2022-09-28T14:55:47;2.85;;;1.00;;
61344;SDS011;47216;42.656;23.232;2022-09-28T14:58:19;1.63;;;0.90;;
61344;SDS011;47216;42.656;23.232;2022-09-28T15:00:59;3.00;;;0.95;;
61344;SDS011;47216;42.656;23.232;2022-09-28T15:03:29;7.90;;;3.38;;
61344;SDS011;47216;42.656;23.232;2022-09-28T15:05:59;4.68;;;1.00;;
61344;SDS011;47216;42.656;23.232;2022-09-28T15:11:12;4.78;;;1.13;;
61344;SDS011;47216;42.656;23.232;2022-09-28T15:13:42;3.83;;;2.20;;
61344;SDS011;47216;42.656;23.232;2022-09-28T15:16:09;4.53;;;2.10;;
61344;SDS011;47216;42.656;23.232;2022-09-28T15:18:53;1.60;;;1.00;;
61344;SDS011;47216;42.656;23.232;2022-09-28T15:21:36;3.67;;;1.30;;
61344;SDS011;47216;42.656;23.232;2022-09-28T15:26:52;7.68;;;2.45;;
61344;SDS011;47216;42.656;23.232;2022-09-28T15:29:20;2.13;;;1.25;;
61344;SDS011;47216;42.656;23.232;2022-09-28T15:31:49;3.92;;;0.93;;
61344;SDS011;47216;42.656;23.232;2022-09-28T15:34:27;5.28;;;1.85;;
61344;SDS011;47216;42.656;23.232;2022-09-28T15:37:12;2.33;;;1.30;;
61344;SDS011;47216;42.656;23.232;2022-09-28T15:39:46;5.03;;;1.40;;
61344;SDS011;47216;42.656;23.232;2022-09-28T15:42:14;4.40;;;2.85;;
61344;SDS011;47216;42.656;23.232;2022-09-28T15:44:42;10.93;;;5.78;;
61344;SDS011;47216;42.656;23.232;2022-09-28T15:47:27;4.68;;;1.75;;
61344;SDS011;47216;42.656;23.232;2022-09-28T15:49:58;7.47;;;2.00;;
61344;SDS011;47216;42.656;23.232;2022-09-28T15:52:30;6.20;;;1.90;;